sensor_id;sensor_type;location;lat;lon;timestamp;P1;durP1;ratioP1;P2;durP2;ratioP2
52072;SDS011;38074;51.232;6.826;2022-10-18T00:06:00;1.38;;;0.47;;
52072;SDS011;38074;51.232;6.826;2022-10-18T00:13:16;0.40;;;0.30;;
52072;SDS011;38074;51.232;6.826;2022-10-18T00:20:32;0.70;;;0.40;;
52072;SDS011;38074;51.232;6.826;2022-10-18T00:27:47;0.60;;;0.30;;
52072;SDS011;38074;51.232;6.826;2022-10-18T00:35:03;0.90;;;0.47;;
52072;SDS011;38074;51.232;6.826;2022-10-18T00:42:20;0.93;;;0.35;;
52072;SDS011;38074;51.232;6.826;2022-10-18T00:49:47;1.83;;;0.30;;
52072;SDS011;38074;51.232;6.826;2022-10-18T00:57:05;0.40;;;0.30;;
52072;SDS011;38074;51.232;6.826;2022-10-18T01:04:21;1.85;;;0.40;;
52072;SDS011;38074;51.232;6.826;2022-10-18T01:11:49;0.70;;;0.40;;
52072;SDS011;38074;51.232;6.826;2022-10-18T01:27:22;0.90;;;0.40;;
52072;SDS011;38074;51.232;6.826;2022-10-18T01:34:47;0.50;;;0.30;;
52072;SDS011;38074;51.232;6.826;2022-10-18T01:42:08;0.68;;;0.30;;
52072;SDS011;38074;51.232;6.826;2022-10-18T01:49:25;0.93;;;0.30;;
52072;SDS011;38074;51.232;6.826;2022-10-18T01:56:48;0.88;;;0.32;;
52072;SDS011;38074;51.232;6.826;2022-10-18T02:04:16;0.30;;;0.30;;
52072;SDS011;38074;51.232;6.826;2022-10-18T02:11:47;0.57;;;0.30;;
52072;SDS011;38074;51.232;6.826;2022-10-18T02:19:09;0.52;;;0.30;;
52072;SDS011;38074;51.232;6.826;2022-10-18T02:26:30;0.52;;;0.30;;
52072;SDS011;38074;51.232;6.826;2022-10-18T02:33:49;0.60;;;0.37;;
52072;SDS011;38074;51.232;6.826;2022-10-18T02:41:22;0.65;;;0.30;;
52072;SDS011;38074;51.232;6.826;2022-10-18T02:48:40;1.55;;;0.30;;
52072;SDS011;38074;51.232;6.826;2022-10-18T02:55:55;0.40;;;0.20;;
52072;SDS011;38074;51.232;6.826;2022-10-18T03:03:11;0.43;;;0.30;;
52072;SDS011;38074;51.232;6.826;2022-10-18T03:10:26;0.90;;;0.40;;
52072;SDS011;38074;51.232;6.826;2022-10-18T03:17:42;0.97;;;0.40;;
52072;SDS011;38074;51.232;6.826;2022-10-18T03:24:57;1.40;;;0.50;;
52072;SDS011;38074;51.232;6.826;2022-10-18T03:32:13;0.80;;;0.40;;
52072;SDS011;38074;51.232;6.826;2022-10-18T03:39:28;0.47;;;0.20;;
52072;SDS011;38074;51.232;6.826;2022-10-18T03:46:44;0.60;;;0.30;;
52072;SDS011;38074;51.232;6.826;2022-10-18T03:53:59;0.47;;;0.23;;
52072;SDS011;38074;51.232;6.826;2022-10-18T04:01:15;0.97;;;0.30;;
52072;SDS011;38074;51.232;6.826;2022-10-18T04:08:30;1.47;;;0.30;;
52072;SDS011;38074;51.232;6.826;2022-10-18T04:15:45;0.80;;;0.30;;
52072;SDS011;38074;51.232;6.826;2022-10-18T04:23:01;0.73;;;0.30;;
52072;SDS011;38074;51.232;6.826;2022-10-18T04:30:17;0.40;;;0.20;;
52072;SDS011;38074;51.232;6.826;2022-10-18T04:37:32;0.60;;;0.30;;
52072;SDS011;38074;51.232;6.826;2022-10-18T04:44:48;1.35;;;0.30;;
52072;SDS011;38074;51.232;6.826;2022-10-18T04:52:04;0.93;;;0.43;;
52072;SDS011;38074;51.232;6.826;2022-10-18T04:59:19;1.00;;;0.55;;
52072;SDS011;38074;51.232;6.826;2022-10-18T05:06:35;0.70;;;0.20;;
52072;SDS011;38074;51.232;6.826;2022-10-18T05:13:50;6.27;;;1.30;;
52072;SDS011;38074;51.232;6.826;2022-10-18T05:21:06;5.28;;;0.90;;
52072;SDS011;38074;51.232;6.826;2022-10-18T05:28:21;7.70;;;2.13;;
52072;SDS011;38074;51.232;6.826;2022-10-18T05:35:38;6.77;;;1.87;;
52072;SDS011;38074;51.232;6.826;2022-10-18T05:42:53;7.27;;;1.80;;
52072;SDS011;38074;51.232;6.826;2022-10-18T05:50:09;7.27;;;2.07;;
52072;SDS011;38074;51.232;6.826;2022-10-18T05:57:24;11.93;;;2.80;;
52072;SDS011;38074;51.232;6.826;2022-10-18T06:04:40;5.73;;;2.50;;
52072;SDS011;38074;51.232;6.826;2022-10-18T06:11:55;7.57;;;2.33;;
52072;SDS011;38074;51.232;6.826;2022-10-18T06:19:11;8.15;;;2.20;;
52072;SDS011;38074;51.232;6.826;2022-10-18T06:26:27;9.50;;;2.03;;
52072;SDS011;38074;51.232;6.826;2022-10-18T06:33:42;9.80;;;2.05;;
52072;SDS011;38074;51.232;6.826;2022-10-18T06:40:59;8.33;;;2.00;;
52072;SDS011;38074;51.232;6.826;2022-10-18T06:48:16;6.05;;;1.90;;
52072;SDS011;38074;51.232;6.826;2022-10-18T06:55:33;3.67;;;1.77;;
52072;SDS011;38074;51.232;6.826;2022-10-18T07:02:49;3.92;;;1.95;;
52072;SDS011;38074;51.232;6.826;2022-10-18T07:10:05;7.33;;;2.40;;
52072;SDS011;38074;51.232;6.826;2022-10-18T07:17:21;5.97;;;2.90;;
52072;SDS011;38074;51.232;6.826;2022-10-18T07:24:36;6.93;;;3.15;;
52072;SDS011;38074;51.232;6.826;2022-10-18T07:31:52;6.53;;;2.63;;
52072;SDS011;38074;51.232;6.826;2022-10-18T07:39:07;5.23;;;2.63;;
52072;SDS011;38074;51.232;6.826;2022-10-18T07:46:23;10.98;;;3.53;;
52072;SDS011;38074;51.232;6.826;2022-10-18T07:53:39;14.55;;;5.40;;
52072;SDS011;38074;51.232;6.826;2022-10-18T08:00:54;13.70;;;4.03;;
52072;SDS011;38074;51.232;6.826;2022-10-18T08:08:10;15.43;;;5.25;;
52072;SDS011;38074;51.232;6.826;2022-10-18T08:15:26;14.90;;;6.90;;
52072;SDS011;38074;51.232;6.826;2022-10-18T08:22:41;23.53;;;10.20;;
52072;SDS011;38074;51.232;6.826;2022-10-18T08:29:57;27.93;;;10.37;;
52072;SDS011;38074;51.232;6.826;2022-10-18T08:37:13;21.73;;;10.40;;
52072;SDS011;38074;51.232;6.826;2022-10-18T08:44:29;30.07;;;10.97;;
52072;SDS011;38074;51.232;6.826;2022-10-18T08:51:46;24.70;;;10.70;;
52072;SDS011;38074;51.232;6.826;2022-10-18T08:59:08;27.65;;;11.98;;
52072;SDS011;38074;51.232;6.826;2022-10-18T09:06:33;24.98;;;11.38;;
52072;SDS011;38074;51.232;6.826;2022-10-18T09:14:01;25.55;;;13.80;;
52072;SDS011;38074;51.232;6.826;2022-10-18T09:29:27;24.35;;;14.43;;
52072;SDS011;38074;51.232;6.826;2022-10-18T09:36:51;23.45;;;13.40;;
52072;SDS011;38074;51.232;6.826;2022-10-18T09:44:22;28.80;;;16.35;;
52072;SDS011;38074;51.232;6.826;2022-10-18T09:51:41;28.70;;;18.95;;
52072;SDS011;38074;51.232;6.826;2022-10-18T09:58:58;25.80;;;16.17;;
52072;SDS011;38074;51.232;6.826;2022-10-18T10:06:16;22.20;;;15.48;;
52072;SDS011;38074;51.232;6.826;2022-10-18T10:20:51;22.67;;;14.82;;
52072;SDS011;38074;51.232;6.826;2022-10-18T10:28:13;23.55;;;15.55;;
52072;SDS011;38074;51.232;6.826;2022-10-18T10:35:33;24.90;;;17.35;;
52072;SDS011;38074;51.232;6.826;2022-10-18T10:42:58;29.33;;;19.55;;
52072;SDS011;38074;51.232;6.826;2022-10-18T10:50:21;33.42;;;21.65;;
52072;SDS011;38074;51.232;6.826;2022-10-18T10:57:39;30.13;;;20.80;;
52072;SDS011;38074;51.232;6.826;2022-10-18T11:05:15;34.92;;;24.75;;
52072;SDS011;38074;51.232;6.826;2022-10-18T11:12:40;33.97;;;23.37;;
52072;SDS011;38074;51.232;6.826;2022-10-18T11:28:32;33.13;;;23.00;;
52072;SDS011;38074;51.232;6.826;2022-10-18T11:35:51;33.30;;;22.42;;
52072;SDS011;38074;51.232;6.826;2022-10-18T11:51:19;28.30;;;19.20;;
52072;SDS011;38074;51.232;6.826;2022-10-18T12:06:37;24.40;;;16.63;;
52072;SDS011;38074;51.232;6.826;2022-10-18T12:13:56;22.60;;;14.73;;
52072;SDS011;38074;51.232;6.826;2022-10-18T12:21:14;20.58;;;14.18;;
52072;SDS011;38074;51.232;6.826;2022-10-18T12:28:41;18.08;;;13.00;;
52072;SDS011;38074;51.232;6.826;2022-10-18T12:43:32;17.27;;;10.95;;
52072;SDS011;38074;51.232;6.826;2022-10-18T12:50:56;15.18;;;10.38;;
52072;SDS011;38074;51.232;6.826;2022-10-18T12:58:29;14.82;;;9.63;;
52072;SDS011;38074;51.232;6.826;2022-10-18T13:13:08;11.83;;;7.57;;
52072;SDS011;38074;51.232;6.826;2022-10-18T14:06:14;6.57;;;4.63;;
52072;SDS011;38074;51.232;6.826;2022-10-18T14:13:33;8.63;;;4.72;;
52072;SDS011;38074;51.232;6.826;2022-10-18T14:21:06;6.43;;;4.07;;
52072;SDS011;38074;51.232;6.826;2022-10-18T14:28:32;5.43;;;3.55;;
52072;SDS011;38074;51.232;6.826;2022-10-18T14:35:57;5.43;;;3.50;;
52072;SDS011;38074;51.232;6.826;2022-10-18T14:43:21;4.72;;;3.03;;
52072;SDS011;38074;51.232;6.826;2022-10-18T14:50:37;5.73;;;2.83;;
52072;SDS011;38074;51.232;6.826;2022-10-18T14:57:52;3.60;;;2.30;;
52072;SDS011;38074;51.232;6.826;2022-10-18T15:05:13;5.13;;;2.97;;
52072;SDS011;38074;51.232;6.826;2022-10-18T15:12:36;5.93;;;2.53;;
52072;SDS011;38074;51.232;6.826;2022-10-18T15:27:25;5.97;;;2.47;;
52072;SDS011;38074;51.232;6.826;2022-10-18T15:34:44;5.38;;;2.53;;
52072;SDS011;38074;51.232;6.826;2022-10-18T15:42:00;6.13;;;2.50;;
52072;SDS011;38074;51.232;6.826;2022-10-18T15:50:02;5.25;;;2.35;;
52072;SDS011;38074;51.232;6.826;2022-10-18T15:56:58;6.05;;;2.33;;
52072;SDS011;38074;51.232;6.826;2022-10-18T16:04:26;8.32;;;2.25;;
52072;SDS011;38074;51.232;6.826;2022-10-18T16:11:44;4.35;;;2.15;;
52072;SDS011;38074;51.232;6.826;2022-10-18T16:18:59;7.05;;;2.40;;
52072;SDS011;38074;51.232;6.826;2022-10-18T16:26:16;8.05;;;2.10;;
52072;SDS011;38074;51.232;6.826;2022-10-18T16:33:32;7.83;;;1.97;;
52072;SDS011;38074;51.232;6.826;2022-10-18T16:40:48;6.45;;;2.00;;
52072;SDS011;38074;51.232;6.826;2022-10-18T16:48:03;8.50;;;2.10;;
52072;SDS011;38074;51.232;6.826;2022-10-18T16:55:19;5.97;;;1.98;;
52072;SDS011;38074;51.232;6.826;2022-10-18T17:02:38;7.57;;;2.15;;
52072;SDS011;38074;51.232;6.826;2022-10-18T17:09:54;6.43;;;1.57;;
52072;SDS011;38074;51.232;6.826;2022-10-18T17:17:12;6.50;;;2.03;;
52072;SDS011;38074;51.232;6.826;2022-10-18T17:24:28;6.07;;;2.17;;
52072;SDS011;38074;51.232;6.826;2022-10-18T17:31:43;4.07;;;1.67;;
52072;SDS011;38074;51.232;6.826;2022-10-18T17:38:59;6.15;;;2.10;;
52072;SDS011;38074;51.232;6.826;2022-10-18T17:46:15;6.93;;;1.80;;
52072;SDS011;38074;51.232;6.826;2022-10-18T17:53:31;8.87;;;2.33;;
52072;SDS011;38074;51.232;6.826;2022-10-18T18:00:48;6.70;;;2.20;;
52072;SDS011;38074;51.232;6.826;2022-10-18T18:08:04;10.57;;;2.37;;
52072;SDS011;38074;51.232;6.826;2022-10-18T18:15:20;8.77;;;2.80;;
52072;SDS011;38074;51.232;6.826;2022-10-18T18:22:35;7.38;;;2.95;;
52072;SDS011;38074;51.232;6.826;2022-10-18T18:29:51;12.20;;;3.15;;
52072;SDS011;38074;51.232;6.826;2022-10-18T18:37:07;7.63;;;2.20;;
52072;SDS011;38074;51.232;6.826;2022-10-18T18:44:23;7.20;;;2.63;;
52072;SDS011;38074;51.232;6.826;2022-10-18T18:51:39;5.97;;;2.53;;
52072;SDS011;38074;51.232;6.826;2022-10-18T18:58:55;7.40;;;2.37;;
52072;SDS011;38074;51.232;6.826;2022-10-18T19:06:17;8.85;;;2.80;;
52072;SDS011;38074;51.232;6.826;2022-10-18T19:13:35;10.30;;;3.08;;
52072;SDS011;38074;51.232;6.826;2022-10-18T19:20:50;11.15;;;2.85;;
52072;SDS011;38074;51.232;6.826;2022-10-18T19:28:06;9.37;;;2.83;;
52072;SDS011;38074;51.232;6.826;2022-10-18T19:35:21;9.75;;;3.08;;
52072;SDS011;38074;51.232;6.826;2022-10-18T19:42:37;6.53;;;2.70;;
52072;SDS011;38074;51.232;6.826;2022-10-18T19:49:52;9.20;;;2.77;;
52072;SDS011;38074;51.232;6.826;2022-10-18T19:57:08;6.32;;;2.20;;
52072;SDS011;38074;51.232;6.826;2022-10-18T20:04:23;7.70;;;2.53;;
52072;SDS011;38074;51.232;6.826;2022-10-18T20:11:39;7.43;;;2.47;;
52072;SDS011;38074;51.232;6.826;2022-10-18T20:18:58;9.18;;;2.60;;
52072;SDS011;38074;51.232;6.826;2022-10-18T20:26:18;7.45;;;2.72;;
52072;SDS011;38074;51.232;6.826;2022-10-18T20:33:35;5.47;;;2.07;;
52072;SDS011;38074;51.232;6.826;2022-10-18T20:40:51;4.53;;;2.20;;
52072;SDS011;38074;51.232;6.826;2022-10-18T20:48:06;5.47;;;2.23;;
52072;SDS011;38074;51.232;6.826;2022-10-18T20:55:22;4.20;;;2.13;;
52072;SDS011;38074;51.232;6.826;2022-10-18T21:02:37;6.00;;;2.20;;
52072;SDS011;38074;51.232;6.826;2022-10-18T21:09:53;4.70;;;1.90;;
52072;SDS011;38074;51.232;6.826;2022-10-18T21:17:09;6.32;;;1.80;;
52072;SDS011;38074;51.232;6.826;2022-10-18T21:24:24;6.25;;;1.77;;
52072;SDS011;38074;51.232;6.826;2022-10-18T21:31:41;5.13;;;1.35;;
52072;SDS011;38074;51.232;6.826;2022-10-18T21:38:57;3.20;;;1.60;;
52072;SDS011;38074;51.232;6.826;2022-10-18T21:46:13;3.33;;;1.20;;
52072;SDS011;38074;51.232;6.826;2022-10-18T21:53:30;2.20;;;0.98;;
52072;SDS011;38074;51.232;6.826;2022-10-18T22:00:46;1.77;;;1.08;;
52072;SDS011;38074;51.232;6.826;2022-10-18T22:08:02;3.27;;;1.03;;
52072;SDS011;38074;51.232;6.826;2022-10-18T22:15:18;1.92;;;0.80;;
52072;SDS011;38074;51.232;6.826;2022-10-18T22:22:34;3.77;;;1.13;;
52072;SDS011;38074;51.232;6.826;2022-10-18T22:29:49;2.03;;;1.10;;
52072;SDS011;38074;51.232;6.826;2022-10-18T22:37:06;1.20;;;0.70;;
52072;SDS011;38074;51.232;6.826;2022-10-18T22:44:21;1.73;;;0.77;;
52072;SDS011;38074;51.232;6.826;2022-10-18T22:51:37;2.53;;;1.00;;
52072;SDS011;38074;51.232;6.826;2022-10-18T22:58:53;2.10;;;0.90;;
52072;SDS011;38074;51.232;6.826;2022-10-18T23:13:40;2.30;;;0.70;;
52072;SDS011;38074;51.232;6.826;2022-10-18T23:21:02;1.63;;;0.87;;
52072;SDS011;38074;51.232;6.826;2022-10-18T23:28:19;1.95;;;0.90;;
52072;SDS011;38074;51.232;6.826;2022-10-18T23:35:35;2.10;;;0.83;;
52072;SDS011;38074;51.232;6.826;2022-10-18T23:42:51;1.23;;;0.60;;
52072;SDS011;38074;51.232;6.826;2022-10-18T23:50:06;2.90;;;0.97;;
52072;SDS011;38074;51.232;6.826;2022-10-18T23:57:22;1.10;;;0.60;;
